Home PIREPS Pireps

Flight BEL618

  • Submitted By: Serge Morabito
  • Departure Airport: Arlanda (ESSA)
  • Arrival Airport: Fiumicino International Airport (LIRF)
  • Aircraft: YOUR CHOICE (YC)
  • Flight Time: 03.23
  • Date Submitted: 01/01/2017
  • Route: BABAP T316 NEPVA DCT LU L87 PESEL/N0450F340 DCT RENKI DCT MAREM P31 RUDAP/N0450F350 UP31 BAMTA UZ370 VAROB DCT DETSA DCT MOMOD DCT NIKMA T369 RITEB
  • Status: Accepted
Flight Details
Gross Revenue:
(21 load / € 0.00 per unit
€ 0.00
Fuel Cost:
(25472 fuel used @ 0 / unit)
€ 0.00

Additional Log Information:

View Log

Aircraft Used in flight is SSG B748-Inter_V1.5 Lufthansa
11:43 Brakes are On
11:45 Brakes are Released
11:46 Brakes are On
11:46 Brakes are Released
11:46 Brakes are On
11:46 Brakes are Released
11:46 Brakes are On
11:47 Brakes are Released
11:50 Brakes are On
11:52 Brakes are Released
11:55 Brakes are On
11:55 Brakes are Released
11:56 Brakes are On
11:58 Brakes are Released
11:59 Brakes are On
12:00 Brakes are Released
12:00 You Took off @ 151 Knots and Flaps at Position 5
Departure Weather
ESSA 011020Z 28010KT CAVOK 03/01 Q0999 R01L/19//95 R08/19//95 R01R/19//95 NOSIGrn
12:00 Landing Gear Up @ 165 Knots and 280 Feet
12:02 Below FL100 you need to turn on the landing lights
12:05 Below 10000 feet you are not allowed to go over 250 knots
14:26 You exceeded maximum bank angle
14:38 Landing Gear Down @ 160 Knots and 1890 Feet
14:41 You Landed @ 125 Knots and with -50 Vertical Speed
Arrival Weather
LIRF 011320Z 21002KT CAVOK 13/02 Q1024 NOSIGrn
14:42 Brakes are On
14:42 Brakes are Released
14:42 Brakes are On
14:42 Brakes are Released
14:42 Brakes are On
14:42 Brakes are Released
14:42 Brakes are On
14:42 Brakes are Released
14:42 Brakes are On
14:43 Brakes are Released
14:47 Brakes are On
14:47 Brakes are Released
14:54 Brakes are On
14:54 Brakes are Released
14:58 Brakes are On
14:58 Brakes are Released
14:58 Brakes are On
14:59 Brakes are Released
14:59 Brakes are On
15:06 Brussels Bel-Track1.0.1.2

Route Map

Corporate About Us Our Team Vacancies Information Fleet Route Network Rules and Regulations Operations Flight Schedules Event Center Tours Partners IVAO Vatsim Acars dev FSCB

fb Users Online Belgium John Smits,
1 Pilot(s) and 102 Guest(s) Online
CMS by phpVMS - Design by Crazycreatives.com - Copyright © 2019 - Brussels Airlines Virtual